createdAt,value
2023-03-01T00:00:15.834Z,102809.56
2023-03-01T00:02:42.749Z,102813.84
2023-03-01T00:05:09.949Z,102816.56
2023-03-01T00:07:37.040Z,102815.44
2023-03-01T00:10:04.819Z,102807.41
2023-03-01T00:12:32.933Z,102816.13
2023-03-01T00:15:00.019Z,102819.78
2023-03-01T00:17:28.788Z,102818.91
2023-03-01T00:19:55.763Z,102823.59
2023-03-01T00:22:22.602Z,102823.59
2023-03-01T00:24:49.531Z,102828.81
2023-03-01T00:27:16.599Z,102832.28
2023-03-01T00:29:43.581Z,102830.59
2023-03-01T00:32:10.603Z,102828.81
2023-03-01T00:34:37.564Z,102836.50
2023-03-01T00:37:06.491Z,102834.06
2023-03-01T00:39:34.557Z,102830.59
2023-03-01T00:42:01.580Z,102820.38
2023-03-01T00:44:29.455Z,102821.38
2023-03-01T00:46:56.475Z,102821.56
2023-03-01T00:49:25.575Z,102820.78
2023-03-01T00:51:52.467Z,102818.09
2023-03-01T00:54:23.192Z,102815.66
2023-03-01T00:56:50.256Z,102817.25
2023-03-01T00:59:17.127Z,102808.63
2023-03-01T01:01:43.970Z,102817.25
2023-03-01T01:04:12.647Z,102812.00
2023-03-01T01:06:40.935Z,102811.34
2023-03-01T01:09:08.594Z,102809.84
2023-03-01T01:11:37.643Z,102818.97
2023-03-01T01:14:04.823Z,102814.50
2023-03-01T01:16:32.222Z,102822.34
2023-03-01T01:18:59.339Z,102823.09
2023-03-01T01:21:26.997Z,102815.22
2023-03-01T01:23:54.366Z,102815.09
2023-03-01T01:26:23.624Z,102806.53
2023-03-01T01:28:50.542Z,102819.53
2023-03-01T01:31:17.602Z,102815.31
2023-03-01T01:33:44.650Z,102807.44
2023-03-01T01:36:12.111Z,102811.69
2023-03-01T01:38:39.866Z,102808.28
2023-03-01T01:41:07.012Z,102804.81
2023-03-01T01:43:36.589Z,102803.16
2023-03-01T01:46:05.736Z,102806.03
2023-03-01T01:48:41.638Z,102807.44
2023-03-01T01:51:10.985Z,102795.38
2023-03-01T01:53:38.173Z,102790.22
2023-03-01T01:56:08.169Z,102789.22
2023-03-01T01:58:35.029Z,102782.28
2023-03-01T02:01:02.944Z,102783.06
2023-03-01T02:03:34.501Z,102776.78
2023-03-01T02:06:05.829Z,102775.09
2023-03-01T02:08:34.659Z,102771.56
2023-03-01T02:11:02.188Z,102771.72
2023-03-01T02:13:29.168Z,102764.03
2023-03-01T02:15:56.024Z,102766.66
2023-03-01T02:18:24.879Z,102762.44
2023-03-01T02:20:54.888Z,102757.19
2023-03-01T02:23:21.744Z,102754.41
2023-03-01T02:25:53.914Z,102759.63
2023-03-01T02:28:23.814Z,102758.78
2023-03-01T02:30:57.668Z,102752.63
2023-03-01T02:33:25.168Z,102755.16
2023-03-01T02:35:53.598Z,102760.47
2023-03-01T02:38:21.029Z,102748.41
2023-03-01T02:40:49.100Z,102745.88
2023-03-01T02:43:16.374Z,102743.34
2023-03-01T02:45:46.184Z,102746.72
2023-03-01T02:48:12.898Z,102748.66
2023-03-01T02:50:42.723Z,102738.28
2023-03-01T02:53:13.959Z,102741.16
2023-03-01T02:55:41.375Z,102734.56
2023-03-01T02:58:08.660Z,102721.66
2023-03-01T03:00:40.751Z,102725.19
2023-03-01T03:03:08.248Z,102725.94
2023-03-01T03:05:34.940Z,102719.78
2023-03-01T03:08:03.310Z,102714.38
2023-03-01T03:10:31.752Z,102711.00
2023-03-01T03:12:59.846Z,102711.84
2023-03-01T03:15:27.241Z,102715.38
2023-03-01T03:17:54.323Z,102716.03
2023-03-01T03:20:22.776Z,102715.13
2023-03-01T03:22:50.514Z,102706.69
2023-03-01T03:25:18.321Z,102712.03
2023-03-01T03:27:46.177Z,102709.47
2023-03-01T03:30:14.833Z,102714.22
2023-03-01T03:32:42.119Z,102709.88
2023-03-01T03:35:10.512Z,102700.38
2023-03-01T03:37:41.813Z,102700.38
2023-03-01T03:40:16.648Z,102694.19
2023-03-01T03:42:43.446Z,102699.41
2023-03-01T03:45:10.348Z,102693.44
2023-03-01T03:47:37.112Z,102699.69
2023-03-01T03:50:03.819Z,102692.75
2023-03-01T03:52:30.583Z,102691.16
2023-03-01T03:54:57.309Z,102689.38
2023-03-01T03:57:24.089Z,102686.78
2023-03-01T03:59:50.854Z,102681.47
2023-03-01T04:02:23.230Z,102680.63
2023-03-01T04:04:51.205Z,102683.72
2023-03-01T04:07:18.090Z,102672.66
2023-03-01T04:09:45.365Z,102677.06
2023-03-01T04:12:12.085Z,102673.63
2023-03-01T04:14:38.817Z,102675.53
2023-03-01T04:17:06.448Z,102670.41
2023-03-01T04:19:37.158Z,102662.63
2023-03-01T04:22:10.453Z,102660.19
2023-03-01T04:24:37.195Z,102659.34
2023-03-01T04:27:04.050Z,102655.97
2023-03-01T04:29:30.958Z,102660.28
2023-03-01T04:31:58.068Z,102659.59
2023-03-01T04:34:24.922Z,102650.06
2023-03-01T04:36:51.815Z,102650.97
2023-03-01T04:39:18.780Z,102655.03
2023-03-01T04:41:45.500Z,102659.16
2023-03-01T04:44:12.196Z,102649.53
2023-03-01T04:46:41.377Z,102647.19
2023-03-01T04:49:08.174Z,102646.00
2023-03-01T04:51:35.136Z,102643.28
2023-03-01T04:54:01.875Z,102634.50
2023-03-01T04:56:28.873Z,102641.50
2023-03-01T04:58:56.016Z,102642.28
2023-03-01T05:01:23.115Z,102642.19
2023-03-01T05:03:51.035Z,102648.28
2023-03-01T05:06:18.484Z,102633.50
2023-03-01T05:08:45.705Z,102633.31
2023-03-01T05:11:13.262Z,102636.13
2023-03-01T05:13:40.567Z,102635.09
2023-03-01T05:16:08.086Z,102637.63
2023-03-01T05:18:35.198Z,102635.94
2023-03-01T05:21:05.156Z,102637.56
2023-03-01T05:23:32.751Z,102633.06
2023-03-01T05:26:00.828Z,102630.28
2023-03-01T05:28:29.338Z,102624.22
2023-03-01T05:30:56.420Z,102628.66
2023-03-01T05:33:23.365Z,102633.16
2023-03-01T05:35:50.921Z,102625.13
2023-03-01T05:38:17.836Z,102620.81
2023-03-01T05:40:45.350Z,102612.97
2023-03-01T05:43:12.597Z,102616.50
2023-03-01T05:45:39.491Z,102613.03
2023-03-01T05:48:06.976Z,102612.13
2023-03-01T05:50:35.332Z,102618.19
2023-03-01T05:53:06.733Z,102621.47
2023-03-01T05:55:34.141Z,102612.97
2023-03-01T05:58:01.411Z,102619.31
2023-03-01T06:00:28.659Z,102610.59
2023-03-01T06:02:55.787Z,102609.75
2023-03-01T06:05:23.434Z,102611.53
2023-03-01T06:07:51.190Z,102613.22
2023-03-01T06:10:18.644Z,102608.00
2023-03-01T06:12:45.834Z,102605.19
2023-03-01T06:15:13.974Z,102617.28
2023-03-01T06:17:41.725Z,102620.56
2023-03-01T06:20:10.544Z,102623.16
2023-03-01T06:22:37.325Z,102615.31
2023-03-01T06:25:04.391Z,102620.66
2023-03-01T06:27:31.189Z,102623.28
2023-03-01T06:29:58.026Z,102612.03
2023-03-01T06:32:24.890Z,102620.66
2023-03-01T06:34:51.740Z,102618.84
2023-03-01T06:37:18.523Z,102626.63
2023-03-01T06:39:45.274Z,102629.25
2023-03-01T06:42:12.156Z,102632.91
2023-03-01T06:44:38.967Z,102632.06
2023-03-01T06:47:05.880Z,102629.44
2023-03-01T06:49:34.847Z,102641.69
2023-03-01T06:52:01.641Z,102640.06
2023-03-01T06:54:28.441Z,102634.94
2023-03-01T06:56:55.277Z,102632.13
2023-03-01T06:59:22.214Z,102630.28
2023-03-01T07:01:48.994Z,102638.88
2023-03-01T07:04:15.737Z,102634.22
2023-03-01T07:06:42.502Z,102636.78
2023-03-01T07:09:09.270Z,102642.19
2023-03-01T07:11:36.230Z,102643.38
2023-03-01T07:14:02.990Z,102641.16
2023-03-01T07:16:30.105Z,102642.03
2023-03-01T07:18:59.189Z,102642.94
2023-03-01T07:21:26.645Z,102644.44
2023-03-01T07:23:53.598Z,102645.31
2023-03-01T07:26:20.431Z,102642.34
2023-03-01T07:28:47.181Z,102641.41
2023-03-01T07:31:14.015Z,102650.84
2023-03-01T07:33:40.876Z,102651.72
2023-03-01T07:36:08.451Z,102651.63
2023-03-01T07:38:35.496Z,102648.09
2023-03-01T07:41:04.059Z,102639.97
2023-03-01T07:43:31.593Z,102646.91
2023-03-01T07:46:00.217Z,102638.78
2023-03-01T07:48:27.311Z,102643.75
2023-03-01T07:50:54.077Z,102638.25
2023-03-01T07:53:21.071Z,102630.19
2023-03-01T07:56:04.727Z,102637.06
2023-03-01T07:58:31.643Z,102625.47
2023-03-01T08:01:02.175Z,102624.13
2023-03-01T08:03:29.091Z,102630.78
2023-03-01T08:05:55.974Z,102628.31
2023-03-01T08:08:22.991Z,102646.22
2023-03-01T08:10:49.836Z,102643.94
2023-03-01T08:13:16.782Z,102644.22
2023-03-01T08:15:48.508Z,102634.94
2023-03-01T08:18:15.388Z,102629.63
2023-03-01T08:20:42.253Z,102634.28
2023-03-01T08:23:09.186Z,102626.34
2023-03-01T08:25:36.500Z,102627.00
2023-03-01T08:28:03.873Z,102619.91
2023-03-01T08:30:31.116Z,102620.41
2023-03-01T08:32:58.442Z,102615.41
2023-03-01T08:35:25.432Z,102614.06
2023-03-01T08:37:52.626Z,102614.56
2023-03-01T08:40:19.582Z,102605.16
2023-03-01T08:42:46.931Z,102610.41
2023-03-01T08:45:15.563Z,102609.75
2023-03-01T08:47:42.566Z,102607.53
2023-03-01T08:50:10.047Z,102608.28
2023-03-01T08:52:36.911Z,102611.03
2023-03-01T08:55:04.093Z,102604.31
2023-03-01T08:57:31.027Z,102609.00
2023-03-01T08:59:58.031Z,102615.03
2023-03-01T09:02:25.309Z,102607.34
2023-03-01T09:04:52.349Z,102618.00
2023-03-01T09:07:34.399Z,102606.41
2023-03-01T09:10:01.326Z,102608.00
2023-03-01T09:12:28.616Z,102601.81
2023-03-01T09:14:55.475Z,102609.56
2023-03-01T09:17:22.760Z,102600.38
2023-03-01T09:19:50.254Z,102610.25
2023-03-01T09:22:17.360Z,102595.72
2023-03-01T09:24:44.597Z,102590.66
2023-03-01T09:27:14.191Z,102586.75
2023-03-01T09:29:41.160Z,102592.63
2023-03-01T09:32:09.543Z,102583.38
2023-03-01T09:34:56.261Z,102578.78
2023-03-01T09:37:23.152Z,102584.84
2023-03-01T09:39:50.217Z,102577.09
2023-03-01T09:42:17.420Z,102571.72
2023-03-01T09:44:49.000Z,102574.19
2023-03-01T09:47:37.924Z,102576.97
2023-03-01T09:50:08.452Z,102566.72
2023-03-01T09:52:41.245Z,102564.09
2023-03-01T09:55:10.968Z,102560.56
2023-03-01T09:57:40.711Z,102557.25
2023-03-01T10:00:08.306Z,102558.09
2023-03-01T10:02:38.302Z,102556.31
2023-03-01T10:05:08.256Z,102555.31
2023-03-01T10:07:39.654Z,102561.66
2023-03-01T10:10:08.745Z,102553.09
2023-03-01T10:12:39.124Z,102560.78
2023-03-01T10:15:07.789Z,102562.63
2023-03-01T10:17:37.841Z,102547.94
2023-03-01T10:20:07.958Z,102542.47
2023-03-01T10:22:36.143Z,102560.94
2023-03-01T10:25:04.845Z,102552.09
2023-03-01T10:27:34.759Z,102552.19
2023-03-01T10:30:04.698Z,102553.13
2023-03-01T10:32:32.551Z,102564.78
2023-03-01T10:34:59.816Z,102562.88
2023-03-01T10:37:28.546Z,102550.16
2023-03-01T10:39:58.678Z,102551.72
2023-03-01T10:42:28.814Z,102547.25
2023-03-01T10:44:55.953Z,102549.78
2023-03-01T10:47:26.853Z,102542.13
2023-03-01T10:49:55.496Z,102539.59
2023-03-01T10:52:24.322Z,102543.06
2023-03-01T10:54:54.334Z,102542.84
2023-03-01T10:57:24.333Z,102545.44
2023-03-01T11:00:02.926Z,102530.47
2023-03-01T11:02:30.759Z,102531.19
2023-03-01T11:05:00.418Z,102529.50
2023-03-01T11:07:27.616Z,102523.13
2023-03-01T11:09:54.673Z,102512.22
2023-03-01T11:12:22.261Z,102511.72
2023-03-01T11:14:50.570Z,102506.56
2023-03-01T11:17:24.846Z,102507.25
2023-03-01T11:20:02.499Z,102511.28
2023-03-01T11:22:30.265Z,102513.72
2023-03-01T11:25:09.329Z,102511.81
2023-03-01T11:27:41.910Z,102497.00
2023-03-01T11:30:12.088Z,102494.81
2023-03-01T11:32:42.106Z,102488.63
2023-03-01T11:35:12.057Z,102491.81
2023-03-01T11:37:42.032Z,102483.72
2023-03-01T11:40:12.161Z,102481.00
2023-03-01T11:42:40.665Z,102472.28
2023-03-01T11:45:10.479Z,102474.16
2023-03-01T11:47:40.765Z,102474.16
2023-03-01T11:50:10.949Z,102471.81
2023-03-01T11:52:51.139Z,102464.63
2023-03-01T11:55:19.414Z,102460.94
2023-03-01T11:57:49.444Z,102451.09
2023-03-01T12:00:19.450Z,102459.91
2023-03-01T12:02:49.593Z,102453.31
2023-03-01T12:05:19.614Z,102447.72
2023-03-01T12:07:49.053Z,102447.19
2023-03-01T12:10:17.595Z,102437.66
2023-03-01T12:12:47.951Z,102434.28
2023-03-01T12:15:17.903Z,102435.09
2023-03-01T12:17:47.870Z,102416.50
2023-03-01T12:20:17.793Z,102411.91
2023-03-01T12:22:54.216Z,102408.44
2023-03-01T12:25:24.296Z,102415.91
2023-03-01T12:28:02.653Z,102407.50
2023-03-01T12:30:30.024Z,102402.66
2023-03-01T12:33:00.078Z,102397.81
2023-03-01T12:35:30.520Z,102394.88
2023-03-01T12:37:58.790Z,102399.16
2023-03-01T12:40:28.759Z,102396.13
2023-03-01T12:42:58.829Z,102384.75
2023-03-01T12:45:33.636Z,102392.75
2023-03-01T12:48:03.770Z,102388.13
2023-03-01T12:50:40.159Z,102371.75
2023-03-01T12:53:09.698Z,102366.50
2023-03-01T12:55:39.836Z,102356.69
2023-03-01T12:58:10.981Z,102348.63
2023-03-01T13:00:41.087Z,102340.75
2023-03-01T13:03:16.202Z,102347.03
2023-03-01T13:05:57.518Z,102343.81
2023-03-01T13:08:31.426Z,102335.72
2023-03-01T13:11:01.611Z,102334.66
2023-03-01T13:13:29.711Z,102338.84
2023-03-01T13:15:57.335Z,102324.69
2023-03-01T13:18:26.418Z,102328.06
2023-03-01T13:20:55.372Z,102326.94
2023-03-01T13:23:22.858Z,102314.50
2023-03-01T13:25:53.024Z,102329.00
2023-03-01T13:28:23.023Z,102319.84
2023-03-01T13:30:49.941Z,102319.50
2023-03-01T13:33:35.552Z,102321.69
2023-03-01T13:36:02.858Z,102317.28
2023-03-01T13:38:32.797Z,102310.22
2023-03-01T13:41:01.360Z,102312.63
2023-03-01T13:43:31.315Z,102314.31
2023-03-01T13:45:58.775Z,102303.69
2023-03-01T13:48:27.364Z,102316.69
2023-03-01T13:50:59.098Z,102301.91
2023-03-01T13:53:27.533Z,102302.75
2023-03-01T13:55:59.516Z,102294.00
2023-03-01T13:58:29.003Z,102290.78
2023-03-01T14:00:57.839Z,102290.47
2023-03-01T14:03:24.921Z,102286.16
2023-03-01T14:06:01.981Z,102288.91
2023-03-01T14:08:35.584Z,102278.78
2023-03-01T14:11:05.533Z,102280.97
2023-03-01T14:13:32.844Z,102275.16
2023-03-01T14:16:02.944Z,102263.09
2023-03-01T14:18:34.927Z,102262.28
2023-03-01T14:21:02.414Z,102261.34
2023-03-01T14:23:29.229Z,102260.84
2023-03-01T14:25:56.953Z,102254.03
2023-03-01T14:28:27.654Z,102255.47
2023-03-01T14:30:56.157Z,102254.97
2023-03-01T14:33:26.137Z,102251.94
2023-03-01T14:35:56.124Z,102247.25
2023-03-01T14:38:24.757Z,102242.84
2023-03-01T14:40:56.437Z,102236.75
2023-03-01T14:43:27.198Z,102230.53
2023-03-01T14:45:54.707Z,102230.44
2023-03-01T14:48:21.807Z,102230.19
2023-03-01T14:50:49.963Z,102226.25
2023-03-01T14:53:19.581Z,102225.41
2023-03-01T14:55:48.235Z,102220.16
2023-03-01T14:58:16.573Z,102217.50
2023-03-01T15:00:49.659Z,102217.13
2023-03-01T15:03:20.256Z,102212.72
2023-03-01T15:05:47.386Z,102209.25
2023-03-01T15:08:20.815Z,102205.16
2023-03-01T15:10:55.056Z,102195.47
2023-03-01T15:13:23.479Z,102194.53
2023-03-01T15:15:52.477Z,102198.59
2023-03-01T15:18:20.741Z,102198.47
2023-03-01T15:20:48.719Z,102196.44
2023-03-01T15:23:18.594Z,102182.13
2023-03-01T15:25:46.280Z,102181.53
2023-03-01T15:28:20.457Z,102181.06
2023-03-01T15:30:53.314Z,102166.94
2023-03-01T15:33:28.627Z,102168.84
2023-03-01T15:35:57.703Z,102160.13
2023-03-01T15:38:33.200Z,102161.31
2023-03-01T15:41:01.663Z,102157.38
2023-03-01T15:43:32.001Z,102154.13
2023-03-01T15:45:59.428Z,102155.09
2023-03-01T15:48:28.810Z,102147.94
2023-03-01T15:50:58.786Z,102152.69
2023-03-01T15:53:27.853Z,102146.38
2023-03-01T15:55:54.738Z,102133.81
2023-03-01T15:58:23.290Z,102137.06
2023-03-01T16:01:02.078Z,102123.41
2023-03-01T16:03:29.457Z,102125.56
2023-03-01T16:05:57.003Z,102123.50
2023-03-01T16:08:23.916Z,102121.03
2023-03-01T16:10:52.330Z,102121.50
2023-03-01T16:13:19.661Z,102113.72
2023-03-01T16:18:27.518Z,102123.16
2023-03-01T16:20:59.876Z,102121.75
2023-03-01T16:23:26.992Z,102116.84
2023-03-01T16:25:53.803Z,102117.78
2023-03-01T16:28:20.916Z,102112.78
2023-03-01T16:30:49.960Z,102112.78
2023-03-01T16:33:29.445Z,102110.13
2023-03-01T16:36:01.370Z,102105.00
2023-03-01T16:38:28.483Z,102107.94
2023-03-01T16:40:58.176Z,102105.44
2023-03-01T16:43:25.312Z,102106.03
2023-03-01T16:45:52.567Z,102106.16
2023-03-01T16:48:20.963Z,102112.16
2023-03-01T16:51:00.085Z,102112.63
2023-03-01T16:53:33.379Z,102112.03
2023-03-01T16:56:07.253Z,102103.63
2023-03-01T16:58:37.560Z,102105.53
2023-03-01T17:01:07.103Z,102106.84
2023-03-01T17:03:34.440Z,102113.06
2023-03-01T17:06:03.698Z,102111.88
2023-03-01T17:08:32.002Z,102103.25
2023-03-01T17:11:02.503Z,102114.63
2023-03-01T17:13:31.908Z,102106.72
2023-03-01T17:15:59.071Z,102101.25
2023-03-01T17:18:26.199Z,102097.66
2023-03-01T17:20:56.623Z,102087.84
2023-03-01T17:23:34.112Z,102095.84
2023-03-01T17:26:07.424Z,102085.59
2023-03-01T17:28:46.572Z,102094.06
2023-03-01T17:31:16.412Z,102082.25
2023-03-01T17:33:43.778Z,102085.34
2023-03-01T17:36:10.757Z,102082.84
2023-03-01T17:38:38.008Z,102082.38
2023-03-01T17:41:05.540Z,102088.44
2023-03-01T17:43:34.643Z,102094.03
2023-03-01T17:46:02.801Z,102091.31
2023-03-01T17:48:29.846Z,102092.41
2023-03-01T17:51:03.096Z,102092.25
2023-03-01T17:53:31.710Z,102098.25
2023-03-01T17:56:09.583Z,102089.41
2023-03-01T17:58:45.026Z,102093.69
2023-03-01T18:01:14.456Z,102100.03
2023-03-01T18:03:41.976Z,102102.91
2023-03-01T18:06:14.330Z,102105.88
2023-03-01T18:08:41.435Z,102107.91
2023-03-01T18:11:09.286Z,102113.25
2023-03-01T18:13:36.655Z,102114.00
2023-03-01T18:16:05.801Z,102112.81
2023-03-01T18:18:33.650Z,102112.31
2023-03-01T18:21:02.072Z,102110.63
2023-03-01T18:23:29.577Z,102115.31
2023-03-01T18:25:59.837Z,102119.13
2023-03-01T18:28:27.569Z,102113.47
2023-03-01T18:30:58.582Z,102111.78
2023-03-01T18:33:26.162Z,102114.44
2023-03-01T18:35:53.521Z,102108.22
2023-03-01T18:38:21.072Z,102113.47
2023-03-01T18:40:48.185Z,102107.38
2023-03-01T18:43:15.125Z,102104.75
2023-03-01T18:45:45.434Z,102110.41
2023-03-01T18:48:14.739Z,102119.00
2023-03-01T18:50:42.224Z,102122.59
2023-03-01T18:53:09.297Z,102112.78
2023-03-01T18:55:37.493Z,102108.50
2023-03-01T18:58:04.828Z,102111.97
2023-03-01T19:00:32.752Z,102105.38
2023-03-01T19:03:01.602Z,102105.09
2023-03-01T19:05:28.994Z,102115.75
2023-03-01T19:07:55.977Z,102114.91
2023-03-01T19:10:23.186Z,102111.44
2023-03-01T19:12:50.172Z,102113.94
2023-03-01T19:15:18.649Z,102105.94
2023-03-01T19:17:46.277Z,102117.41
2023-03-01T19:20:16.542Z,102114.06
2023-03-01T19:22:45.164Z,102116.47
2023-03-01T19:25:13.250Z,102108.69
2023-03-01T19:27:41.360Z,102111.91
2023-03-01T19:30:11.359Z,102115.38
2023-03-01T19:32:39.965Z,102105.19
2023-03-01T19:35:11.013Z,102112.59
2023-03-01T19:37:39.422Z,102112.31
2023-03-01T19:40:07.698Z,102109.06
2023-03-01T19:42:35.995Z,102113.94
2023-03-01T19:45:03.704Z,102108.06
2023-03-01T19:47:31.226Z,102121.56
2023-03-01T19:49:59.789Z,102104.44
2023-03-01T19:52:28.492Z,102112.44
2023-03-01T19:55:08.603Z,102106.56
2023-03-01T19:57:37.051Z,102108.59
2023-03-01T20:00:05.294Z,102106.81
2023-03-01T20:02:33.098Z,102111.00
2023-03-01T20:05:00.665Z,102117.31
2023-03-01T20:07:27.922Z,102112.06
2023-03-01T20:09:55.083Z,102120.66
2023-03-01T20:12:22.646Z,102118.97
2023-03-01T20:14:51.826Z,102121.72
2023-03-01T20:17:19.242Z,102125.06
2023-03-01T20:19:46.302Z,102124.97
2023-03-01T20:22:15.219Z,102127.59
2023-03-01T20:24:42.436Z,102131.03
2023-03-01T20:27:12.284Z,102127.69
2023-03-01T20:29:39.751Z,102130.78
2023-03-01T20:32:07.013Z,102128.25
2023-03-01T20:34:34.108Z,102130.13
2023-03-01T20:37:05.041Z,102136.56
2023-03-01T20:39:32.352Z,102129.72
2023-03-01T20:41:59.768Z,102135.97
2023-03-01T20:44:27.047Z,102135.97
2023-03-01T20:46:53.985Z,102137.59
2023-03-01T20:49:21.884Z,102133.53
2023-03-01T20:51:48.719Z,102132.69
2023-03-01T20:54:15.754Z,102124.44
2023-03-01T20:56:43.243Z,102132.75
2023-03-01T20:59:12.516Z,102134.53
2023-03-01T21:01:40.188Z,102141.78
2023-03-01T21:04:07.091Z,102144.94
2023-03-01T21:06:34.365Z,102143.38
2023-03-01T21:09:03.825Z,102145.34
2023-03-01T21:11:33.229Z,102135.94
2023-03-01T21:14:00.489Z,102154.50
2023-03-01T21:16:28.125Z,102139.72
2023-03-01T21:18:55.112Z,102138.97
2023-03-01T21:21:23.431Z,102143.63
2023-03-01T21:23:50.450Z,102145.41
2023-03-01T21:26:20.144Z,102145.59
2023-03-01T21:28:47.418Z,102142.25
2023-03-01T21:31:15.891Z,102147.59
2023-03-01T21:33:45.642Z,102148.75
2023-03-01T21:36:12.780Z,102140.91
2023-03-01T21:38:41.477Z,102150.44
2023-03-01T21:41:09.793Z,102144.13
2023-03-01T21:43:37.755Z,102149.59
2023-03-01T21:46:05.436Z,102144.69
2023-03-01T21:48:32.965Z,102142.06
2023-03-01T21:51:01.080Z,102137.84
2023-03-01T21:53:30.380Z,102143.94
2023-03-01T21:55:57.463Z,102136.28
2023-03-01T21:58:25.955Z,102147.91
2023-03-01T22:00:53.139Z,102139.72
2023-03-01T22:03:20.469Z,102138.03
2023-03-01T22:05:50.776Z,102146.63
2023-03-01T22:08:19.294Z,102150.41
2023-03-01T22:10:46.577Z,102149.88
2023-03-01T22:13:13.989Z,102148.22
2023-03-01T22:15:42.049Z,102159.63
2023-03-01T22:18:09.657Z,102146.53
2023-03-01T22:20:37.192Z,102154.59
2023-03-01T22:23:04.653Z,102153.13
2023-03-01T22:25:31.798Z,102153.31
2023-03-01T22:27:59.013Z,102157.84
2023-03-01T22:30:26.261Z,102157.19
2023-03-01T22:32:55.585Z,102158.13
2023-03-01T22:35:25.779Z,102164.44
2023-03-01T22:37:52.787Z,102168.91
2023-03-01T22:40:19.886Z,102162.97
2023-03-01T22:42:46.840Z,102167.28
2023-03-01T22:45:14.629Z,102167.53
2023-03-01T22:47:43.167Z,102161.59
2023-03-01T22:50:14.778Z,102160.84
2023-03-01T22:52:43.582Z,102166.72
2023-03-01T22:55:12.579Z,102165.06
2023-03-01T22:57:40.710Z,102159.91
2023-03-01T23:00:13.439Z,102161.78
2023-03-01T23:02:42.620Z,102160.97
2023-03-01T23:05:10.177Z,102162.63
2023-03-01T23:07:40.000Z,102159.59
2023-03-01T23:10:07.682Z,102163.84
2023-03-01T23:12:36.569Z,102160.59
2023-03-01T23:15:04.086Z,102169.09
2023-03-01T23:17:31.056Z,102156.84
2023-03-01T23:19:58.133Z,102160.53
2023-03-01T23:22:25.287Z,102161.22
2023-03-01T23:24:52.455Z,102155.69
2023-03-01T23:27:19.499Z,102159.97
2023-03-01T23:29:46.561Z,102149.38
2023-03-01T23:32:15.077Z,102155.03
2023-03-01T23:34:44.120Z,102151.59
2023-03-01T23:37:11.080Z,102153.84
2023-03-01T23:39:40.798Z,102149.03
2023-03-01T23:42:08.694Z,102156.91
2023-03-01T23:44:35.980Z,102150.38
2023-03-01T23:47:03.770Z,102149.72
2023-03-01T23:49:30.702Z,102149.91
2023-03-01T23:51:57.695Z,102147.41
2023-03-01T23:54:24.971Z,102144.97
2023-03-01T23:56:52.017Z,102140.88
2023-03-01T23:59:20.352Z,102137.63
